Time;durP1;ratioP1;P1;durP2;ratioP2;P2;SDS_P1;SDS_P2;PMS_P1;PMS_P2;Temp;Humidity;BMP_temperature;BMP_pressure;BME280_temperature;BME280_humidity;BME280_pressure;Samples;Min_cycle;Max_cycle;Signal;HPM_P1;HPM_P2
2023/08/06 00:02:23;;;;;;;5.93;3.67;;;14.50;99.90;;;;;;5039224;28;20467;-83
2023/08/06 00:04:49;;;;;;;4.57;3.60;;;;;;;;;;5046011;28;20285;-83
2023/08/06 00:07:15;;;;;;;4.30;3.83;;;14.30;99.90;;;;;;5036194;28;20176;-83
2023/08/06 00:09:41;;;;;;;6.77;3.43;;;14.20;99.90;;;;;;5037063;28;20542;-83
2023/08/06 00:12:06;;;;;;;5.67;3.53;;;14.10;99.90;;;;;;5050845;28;21240;-82
2023/08/06 00:14:32;;;;;;;3.90;3.20;;;14.00;99.90;;;;;;5033830;28;20237;-82
2023/08/06 00:16:57;;;;;;;5.00;3.93;;;14.00;99.90;;;;;;5023458;28;20851;-84
2023/08/06 00:19:23;;;;;;;5.23;3.50;;;13.90;99.90;;;;;;5050977;28;20684;-83
2023/08/06 00:21:49;;;;;;;4.53;3.73;;;13.80;99.90;;;;;;5042839;28;20180;-84
2023/08/06 00:24:14;;;;;;;5.40;4.10;;;;;;;;;;5041408;28;20169;-84
2023/08/06 00:26:40;;;;;;;6.33;3.13;;;;;;;;;;5063945;28;20216;-84
2023/08/06 00:29:06;;;;;;;4.67;3.63;;;;;;;;;;5056902;28;20448;-84
2023/08/06 00:31:32;;;;;;;6.83;3.90;;;13.80;99.90;;;;;;5042936;28;20509;-85
2023/08/06 00:33:57;;;;;;;5.70;4.33;;;15.80;99.90;;;;;;5052549;28;20458;-84
2023/08/06 00:36:23;;;;;;;5.97;3.97;;;;;;;;;;5038867;28;20196;-83
2023/08/06 00:38:49;;;;;;;8.00;4.00;;;;;;;;;;5035397;28;20806;-84
2023/08/06 00:41:15;;;;;;;3.83;3.30;;;;;;;;;;5044818;28;20418;-83
2023/08/06 00:43:41;;;;;;;4.57;3.90;;;;;;;;;;5047900;28;20458;-86
2023/08/06 00:46:07;;;;;;;5.70;4.00;;;14.10;99.90;;;;;;5039235;28;21230;-86
2023/08/06 00:48:33;;;;;;;7.57;4.17;;;;;;;;;;5032091;28;20487;-86
2023/08/06 00:50:59;;;;;;;11.97;4.60;;;14.20;99.90;;;;;;5052066;28;20216;-85
2023/08/06 00:53:25;;;;;;;4.47;3.63;;;14.20;99.90;;;;;;5037134;28;20660;-84
2023/08/06 00:55:51;;;;;;;5.63;4.20;;;14.50;99.90;;;;;;5051993;28;20908;-85
2023/08/06 00:58:17;;;;;;;5.63;4.10;;;;;;;;;;5042892;28;20192;-83
2023/08/06 01:00:44;;;;;;;5.17;4.50;;;14.60;99.90;;;;;;5045724;28;20450;-86
2023/08/06 01:03:10;;;;;;;5.57;4.93;;;14.60;99.90;;;;;;5038973;28;20517;-83
2023/08/06 01:05:36;;;;;;;4.47;3.93;;;14.60;99.90;;;;;;5034664;28;20561;-84
2023/08/06 01:08:10;;;;;;;4.10;3.60;;;14.60;99.90;;;;;;5025207;28;20184;-84
2023/08/06 01:10:57;;;;;;;4.63;3.60;;;14.60;99.90;;;;;;5039802;28;20578;-84
2023/08/06 01:13:33;;;;;;;10.00;4.97;;;14.50;99.90;;;;;;5032321;28;20457;-83
2023/08/06 01:16:00;;;;;;;4.40;4.00;;;14.40;99.90;;;;;;5029553;28;21033;-83
2023/08/06 01:18:26;;;;;;;5.73;4.27;;;;;;;;;;5049174;28;20564;-84
2023/08/06 01:20:52;;;;;;;4.20;3.77;;;14.30;99.90;;;;;;5035464;28;20460;-83
2023/08/06 01:23:19;;;;;;;6.50;4.67;;;14.30;99.90;;;;;;5032779;28;20580;-84
2023/08/06 01:25:56;;;;;;;5.10;3.80;;;14.30;99.90;;;;;;5035185;28;20224;-82
2023/08/06 01:28:35;;;;;;;6.00;4.33;;;14.40;99.90;;;;;;5034036;28;20841;-82
2023/08/06 01:31:02;;;;;;;5.13;3.83;;;14.50;99.90;;;;;;5039694;28;20433;-83
2023/08/06 01:33:32;;;;;;;7.63;4.23;;;14.50;99.90;;;;;;5024624;28;20455;-84
2023/08/06 01:35:58;;;;;;;4.20;3.47;;;14.60;99.90;;;;;;5040740;28;20497;-83
2023/08/06 01:38:24;;;;;;;4.93;3.57;;;14.60;99.90;;;;;;5053126;28;20440;-84
2023/08/06 01:40:50;;;;;;;5.63;4.43;;;14.70;99.90;;;;;;5032835;28;20462;-84
2023/08/06 01:43:15;;;;;;;6.93;3.87;;;14.80;99.90;;;;;;5029887;28;20523;-83
2023/08/06 01:45:41;;;;;;;6.40;4.20;;;14.80;99.90;;;;;;5031168;28;20585;-83
2023/08/06 01:48:06;;;;;;;5.63;4.20;;;14.80;99.90;;;;;;5052154;28;20181;-83
2023/08/06 01:50:33;;;;;;;5.97;3.93;;;14.80;99.90;;;;;;5035757;28;20181;-82
2023/08/06 01:52:58;;;;;;;16.70;4.50;;;14.70;99.90;;;;;;5047301;28;20200;-85
2023/08/06 01:55:24;;;;;;;4.53;3.37;;;14.70;99.90;;;;;;5043864;28;21180;-83
2023/08/06 01:57:49;;;;;;;3.40;3.10;;;14.60;99.90;;;;;;5033598;28;20268;-83
2023/08/06 02:00:15;;;;;;;3.60;3.10;;;14.60;99.90;;;;;;5034258;28;20211;-83
2023/08/06 02:02:40;;;;;;;4.57;3.00;;;14.60;99.90;;;;;;5026259;28;20691;-83
2023/08/06 02:05:06;;;;;;;4.43;3.67;;;14.60;99.90;;;;;;5043128;28;20572;-84
2023/08/06 02:07:32;;;;;;;2.83;2.50;;;14.60;99.90;;;;;;5033407;28;20177;-83
2023/08/06 02:09:57;;;;;;;4.37;2.87;;;14.50;99.90;;;;;;5045045;28;20181;-82
2023/08/06 02:12:23;;;;;;;7.30;3.60;;;14.50;99.90;;;;;;5032963;28;20676;-83
2023/08/06 02:14:48;;;;;;;4.70;2.43;;;14.40;99.90;;;;;;5047268;28;20296;-84
2023/08/06 02:17:14;;;;;;;6.83;3.20;;;14.40;99.90;;;;;;5029096;28;20192;-84
2023/08/06 02:19:39;;;;;;;5.43;3.23;;;14.40;99.90;;;;;;5027483;28;20188;-83
2023/08/06 02:22:05;;;;;;;4.10;3.30;;;14.50;99.90;;;;;;5036819;28;20217;-83
2023/08/06 02:24:30;;;;;;;3.90;2.40;;;14.30;99.90;;;;;;5030439;28;20907;-84
2023/08/06 02:26:56;;;;;;;5.23;3.17;;;14.40;99.90;;;;;;5046089;28;20173;-83
2023/08/06 02:29:21;;;;;;;6.63;3.43;;;14.40;99.90;;;;;;5045654;28;21990;-83
2023/08/06 02:31:47;;;;;;;6.03;3.20;;;14.50;99.90;;;;;;5045354;28;20177;-83
2023/08/06 02:34:12;;;;;;;2.40;2.20;;;14.50;99.90;;;;;;5044654;28;20189;-83
2023/08/06 02:36:38;;;;;;;2.73;2.23;;;14.60;99.90;;;;;;5030711;28;20208;-81
2023/08/06 02:39:04;;;;;;;13.50;2.77;;;14.60;99.90;;;;;;5028349;28;20176;-83
2023/08/06 02:41:29;;;;;;;4.63;2.90;;;14.50;99.90;;;;;;5048948;28;20257;-83
2023/08/06 02:43:54;;;;;;;3.30;2.90;;;14.30;99.90;;;;;;5041471;28;20216;-85
2023/08/06 02:46:20;;;;;;;5.90;3.60;;;14.20;99.90;;;;;;5037091;28;20757;-85
2023/08/06 02:48:46;;;;;;;3.00;2.37;;;14.20;99.90;;;;;;5029449;28;20176;-84
2023/08/06 02:51:11;;;;;;;4.60;2.63;;;14.20;99.90;;;;;;5030477;28;20391;-83
2023/08/06 02:53:37;;;;;;;5.53;2.43;;;14.20;99.90;;;;;;5037662;28;20215;-84
2023/08/06 02:56:02;;;;;;;4.43;2.87;;;14.20;99.90;;;;;;5048769;28;20185;-83
2023/08/06 02:58:28;;;;;;;6.43;3.10;;;14.30;99.90;;;;;;5037129;28;20192;-84
2023/08/06 03:01:19;;;;;;;4.50;2.90;;;14.30;99.90;;;;;;5032306;28;20185;-83
2023/08/06 03:03:45;;;;;;;4.28;2.85;;;14.20;99.90;;;;;;5039783;28;20237;-83
2023/08/06 03:06:10;;;;;;;7.23;3.20;;;14.20;99.90;;;;;;5028577;28;20212;-85
2023/08/06 03:08:36;;;;;;;3.93;3.20;;;14.10;99.90;;;;;;5050117;28;20746;-83
2023/08/06 03:11:01;;;;;;;5.33;2.77;;;14.10;99.90;;;;;;5041361;28;20187;-82
2023/08/06 03:13:28;;;;;;;4.33;2.83;;;14.10;99.90;;;;;;5035263;28;20227;-84
2023/08/06 03:15:55;;;;;;;5.13;2.93;;;14.00;99.90;;;;;;5037424;28;20184;-84
2023/08/06 03:18:21;;;;;;;4.47;2.63;;;14.00;99.90;;;;;;5028476;28;20436;-84
2023/08/06 03:20:47;;;;;;;2.83;2.50;;;14.10;99.90;;;;;;5027101;28;20444;-82
2023/08/06 03:23:12;;;;;;;3.90;2.93;;;14.20;99.90;;;;;;5033246;28;20459;-84
2023/08/06 03:25:37;;;;;;;4.87;2.67;;;14.60;99.90;;;;;;5022809;28;20208;-84
2023/08/06 03:28:03;;;;;;;4.40;2.87;;;14.80;99.90;;;;;;5044833;28;20951;-83
2023/08/06 03:30:29;;;;;;;4.57;2.97;;;14.70;99.90;;;;;;5029228;28;20191;-82
2023/08/06 03:32:55;;;;;;;4.37;2.60;;;;;;;;;;5021828;28;20204;-82
2023/08/06 03:35:20;;;;;;;4.00;2.97;;;14.90;99.90;;;;;;5025167;28;20213;-84
2023/08/06 03:37:46;;;;;;;5.53;2.60;;;14.90;99.90;;;;;;5044547;28;20439;-84
2023/08/06 03:40:11;;;;;;;7.03;2.93;;;15.00;99.90;;;;;;5024589;28;20192;-83
2023/08/06 03:42:37;;;;;;;5.00;2.70;;;15.00;99.90;;;;;;5041121;28;20208;-83
2023/08/06 03:45:03;;;;;;;8.00;3.00;;;14.90;99.90;;;;;;5026988;28;20196;-81
2023/08/06 03:47:28;;;;;;;12.20;3.50;;;15.10;99.90;;;;;;5044823;28;20325;-83
2023/08/06 03:49:54;;;;;;;4.80;2.83;;;15.30;99.90;;;;;;5038591;28;21451;-83
2023/08/06 03:52:19;;;;;;;4.20;2.07;;;15.30;99.90;;;;;;5039919;28;20627;-83
2023/08/06 03:54:45;;;;;;;2.27;1.90;;;15.20;99.90;;;;;;5037279;28;20177;-85
2023/08/06 03:57:10;;;;;;;4.33;2.50;;;15.00;99.90;;;;;;5055660;28;20242;-82
2023/08/06 03:59:36;;;;;;;5.63;2.77;;;14.90;99.90;;;;;;5046711;28;20169;-84
2023/08/06 04:02:02;;;;;;;5.20;2.60;;;14.90;99.90;;;;;;5056034;28;20316;-84
2023/08/06 04:04:27;;;;;;;3.30;2.10;;;14.90;99.90;;;;;;5036224;28;20199;-82
2023/08/06 04:06:53;;;;;;;5.23;1.80;;;16.10;99.90;;;;;;5032876;28;20184;-82
2023/08/06 04:09:18;;;;;;;6.23;2.03;;;14.80;99.90;;;;;;5033967;28;20183;-83
2023/08/06 04:11:44;;;;;;;5.60;2.00;;;14.70;99.90;;;;;;5035023;28;20211;-83
2023/08/06 04:14:10;;;;;;;3.67;2.10;;;14.70;99.90;;;;;;5036397;28;20181;-84
2023/08/06 04:16:35;;;;;;;3.33;1.73;;;14.70;99.90;;;;;;5057184;28;20192;-85
2023/08/06 04:19:01;;;;;;;1.20;1.10;;;14.70;99.90;;;;;;5054749;28;20240;-84
2023/08/06 04:21:26;;;;;;;5.00;1.50;;;14.60;99.90;;;;;;5050679;28;21600;-83
2023/08/06 04:23:52;;;;;;;4.37;1.73;;;14.50;99.90;;;;;;5047805;28;20254;-83
2023/08/06 04:26:17;;;;;;;3.40;1.33;;;14.60;99.90;;;;;;5050787;28;20693;-83
2023/08/06 04:28:43;;;;;;;3.83;1.80;;;14.60;99.90;;;;;;5032303;28;20185;-83
2023/08/06 04:31:08;;;;;;;4.63;1.10;;;14.60;99.90;;;;;;5033962;28;20240;-82
2023/08/06 04:33:34;;;;;;;2.10;1.33;;;14.60;99.90;;;;;;5054884;28;20422;-85
2023/08/06 04:35:59;;;;;;;2.63;1.13;;;14.60;99.90;;;;;;5054827;28;20208;-81
2023/08/06 04:38:25;;;;;;;4.00;1.60;;;14.50;99.90;;;;;;5033063;28;20197;-81
2023/08/06 04:40:51;;;;;;;3.83;1.20;;;14.50;99.90;;;;;;5037298;28;20196;-82
2023/08/06 04:43:17;;;;;;;3.67;1.10;;;14.60;99.90;;;;;;5052089;28;20519;-82
2023/08/06 04:45:47;;;;;;;2.40;1.37;;;14.60;99.90;;;;;;5035343;28;20451;-83
2023/08/06 04:48:13;;;;;;;5.30;1.33;;;14.70;99.90;;;;;;5030757;28;20271;-83
2023/08/06 04:50:38;;;;;;;2.43;1.40;;;14.90;99.90;;;;;;5038747;28;20514;-82
2023/08/06 04:53:03;;;;;;;1.60;1.10;;;15.10;99.90;;;;;;5034993;28;20238;-83
2023/08/06 04:55:29;;;;;;;3.53;1.87;;;15.20;99.90;;;;;;5049393;28;20868;-83
2023/08/06 04:57:54;;;;;;;4.97;1.60;;;15.40;99.90;;;;;;5060231;28;20185;-84
2023/08/06 05:00:20;;;;;;;1.30;0.90;;;16.10;99.90;;;;;;5042733;28;20193;-84
2023/08/06 05:02:45;;;;;;;6.83;1.53;;;17.60;99.90;;;;;;5038063;28;20278;-84
2023/08/06 05:05:11;;;;;;;5.50;1.33;;;17.90;99.90;;;;;;5044286;28;20649;-86
2023/08/06 05:07:36;;;;;;;2.30;1.27;;;17.40;99.90;;;;;;5050185;28;20248;-85
2023/08/06 05:10:04;;;;;;;1.80;0.70;;;16.50;99.90;;;;;;5050123;28;20248;-84
2023/08/06 05:12:29;;;;;;;1.30;1.00;;;16.10;99.90;;;;;;5040079;28;20212;-87
2023/08/06 05:14:55;;;;;;;2.40;1.20;;;16.00;99.90;;;;;;5056547;28;20812;-83
2023/08/06 05:17:22;;;;;;;3.53;0.90;;;15.80;99.90;;;;;;5051663;28;20238;-83
2023/08/06 05:19:48;;;;;;;2.27;0.80;;;15.50;99.90;;;;;;5042141;28;20176;-85
2023/08/06 05:22:13;;;;;;;4.07;1.40;;;15.50;99.90;;;;;;5032970;28;20458;-84
2023/08/06 05:24:39;;;;;;;6.77;1.10;;;15.50;99.90;;;;;;5052431;28;20839;-84
2023/08/06 05:27:05;;;;;;;1.20;0.63;;;15.40;99.90;;;;;;5054519;28;20179;-83
2023/08/06 05:29:30;;;;;;;2.43;1.10;;;15.20;99.90;;;;;;5052880;28;20667;-82
2023/08/06 05:31:56;;;;;;;2.80;0.80;;;;;;;;;;5050001;28;20442;-83
2023/08/06 05:34:22;;;;;;;2.67;1.33;;;15.10;99.90;;;;;;5037643;28;20280;-83
2023/08/06 05:36:47;;;;;;;4.83;1.17;;;14.90;99.90;;;;;;5032404;28;20459;-83
2023/08/06 05:39:13;;;;;;;4.50;1.30;;;14.80;99.90;;;;;;5035309;28;20525;-83
2023/08/06 05:41:38;;;;;;;1.90;0.80;;;14.80;99.90;;;;;;5049629;28;20185;-84
2023/08/06 05:44:04;;;;;;;3.20;0.80;;;15.00;99.90;;;;;;5043344;28;20204;-83
2023/08/06 05:46:29;;;;;;;6.80;1.13;;;15.10;99.90;;;;;;5042829;28;20216;-83
2023/08/06 05:48:55;;;;;;;2.77;1.20;;;15.40;99.90;;;;;;5039145;28;20286;-85
2023/08/06 05:51:20;;;;;;;2.83;1.20;;;15.60;99.90;;;;;;5043552;28;20552;-85
2023/08/06 05:53:46;;;;;;;1.90;0.87;;;15.70;99.90;;;;;;5028587;28;20323;-84
2023/08/06 05:56:12;;;;;;;0.93;0.60;;;15.60;99.90;;;;;;5028776;28;20581;-83
2023/08/06 05:58:38;;;;;;;1.80;0.80;;;15.50;99.90;;;;;;5048119;28;20458;-85
2023/08/06 06:01:03;;;;;;;3.67;0.97;;;15.40;99.90;;;;;;5046557;28;20907;-80
2023/08/06 06:03:29;;;;;;;3.20;0.87;;;15.60;99.90;;;;;;5044119;28;20591;-84
2023/08/06 06:05:54;;;;;;;6.67;1.00;;;15.70;99.90;;;;;;5040340;28;20224;-81
2023/08/06 06:08:20;;;;;;;0.90;0.63;;;15.80;99.90;;;;;;5045413;28;20195;-82
2023/08/06 06:10:46;;;;;;;4.97;1.00;;;16.00;99.90;;;;;;5056746;28;20185;-85
2023/08/06 06:13:12;;;;;;;1.10;0.63;;;16.20;99.90;;;;;;5030588;28;20461;-86
2023/08/06 06:15:38;;;;;;;2.40;1.23;;;16.50;99.90;;;;;;5044433;28;20192;-85
2023/08/06 06:18:03;;;;;;;3.07;0.63;;;16.60;99.90;;;;;;5021080;28;20172;-87
2023/08/06 06:20:29;;;;;;;0.60;0.50;;;17.20;99.90;;;;;;5029871;28;20469;-83
2023/08/06 06:22:55;;;;;;;1.03;0.60;;;;;;;;;;5031590;28;20200;-84
2023/08/06 06:25:20;;;;;;;1.27;0.90;;;16.80;99.90;;;;;;5044498;28;20215;-81
2023/08/06 06:27:45;;;;;;;2.30;0.40;;;16.80;99.90;;;;;;5048726;28;21497;-83
2023/08/06 06:30:12;;;;;;;2.00;0.70;;;16.60;99.90;;;;;;5052199;28;20224;-83
2023/08/06 06:32:37;;;;;;;1.63;0.80;;;16.30;99.90;;;;;;5027831;28;20205;-84
2023/08/06 06:35:03;;;;;;;1.27;1.10;;;16.10;99.90;;;;;;5036634;28;20449;-84
2023/08/06 06:37:29;;;;;;;1.53;0.70;;;16.00;99.90;;;;;;5033559;28;20231;-83
2023/08/06 06:39:54;;;;;;;3.63;0.60;;;15.80;99.90;;;;;;5036611;28;20183;-85
2023/08/06 06:42:20;;;;;;;1.90;0.70;;;15.70;99.90;;;;;;5033493;28;20246;-85
2023/08/06 06:44:45;;;;;;;1.33;0.60;;;15.50;99.90;;;;;;5049478;28;20214;-83
2023/08/06 06:47:11;;;;;;;0.50;0.40;;;15.50;99.90;;;;;;5036629;28;20463;-85
2023/08/06 06:49:37;;;;;;;0.90;0.70;;;;;;;;;;5042588;28;20181;-84
2023/08/06 06:52:03;;;;;;;1.33;0.70;;;15.50;99.90;;;;;;5030964;28;20189;-83
2023/08/06 06:54:28;;;;;;;1.73;0.63;;;15.60;99.90;;;;;;5048809;28;20900;-83
2023/08/06 06:56:54;;;;;;;0.60;0.50;;;15.80;99.90;;;;;;5020779;28;20830;-83
2023/08/06 06:59:19;;;;;;;1.90;0.50;;;16.00;99.90;;;;;;5019331;28;20181;-84
2023/08/06 07:01:45;;;;;;;1.63;0.47;;;15.80;99.90;;;;;;5027434;28;20172;-82
2023/08/06 07:04:10;;;;;;;0.73;0.47;;;15.70;99.90;;;;;;5046648;28;20296;-83
2023/08/06 07:06:36;;;;;;;0.70;0.50;;;15.80;99.90;;;;;;5044586;28;20204;-83
2023/08/06 07:09:01;;;;;;;1.33;0.70;;;15.70;99.90;;;;;;5049403;28;20187;-83
2023/08/06 07:11:27;;;;;;;0.80;0.40;;;16.10;99.90;;;;;;5037310;28;20664;-81
2023/08/06 07:13:59;;;;;;;3.23;0.57;;;15.00;99.90;;;;;;5046531;28;20197;-82
2023/08/06 07:16:28;;;;;;;2.23;0.50;;;14.80;99.90;;;;;;5048159;28;20185;-81
2023/08/06 07:18:54;;;;;;;3.53;0.60;;;14.80;99.90;;;;;;5043734;28;20438;-80
2023/08/06 07:21:20;;;;;;;2.50;0.87;;;15.00;99.90;;;;;;5039204;28;20441;-82
2023/08/06 07:23:45;;;;;;;1.73;0.40;;;15.20;99.90;;;;;;5047848;28;20213;-82
2023/08/06 07:26:11;;;;;;;1.53;0.93;;;15.30;99.90;;;;;;5048516;28;20652;-79
2023/08/06 07:28:37;;;;;;;0.60;0.40;;;15.10;99.90;;;;;;5051376;28;20193;-85
2023/08/06 07:31:03;;;;;;;0.50;0.30;;;15.20;99.90;;;;;;5052979;28;20957;-81
2023/08/06 07:33:29;;;;;;;0.67;0.40;;;15.40;99.90;;;;;;5053075;28;20200;-84
2023/08/06 07:35:54;;;;;;;0.40;0.30;;;15.90;99.90;;;;;;5049878;28;20439;-85
2023/08/06 07:38:20;;;;;;;0.50;0.30;;;16.00;99.90;;;;;;5053147;28;20207;-81
2023/08/06 07:40:45;;;;;;;5.97;0.60;;;15.90;99.90;;;;;;5036071;28;20523;-83
2023/08/06 07:43:11;;;;;;;0.50;0.30;;;15.80;99.90;;;;;;5052309;28;20780;-82
2023/08/06 07:45:37;;;;;;;2.00;0.40;;;15.80;99.90;;;;;;5050113;28;20235;-80
2023/08/06 07:48:03;;;;;;;0.60;0.40;;;16.20;99.90;;;;;;5055803;28;20208;-81
2023/08/06 07:50:29;;;;;;;0.50;0.30;;;;;;;;;;5052078;28;20448;-83
2023/08/06 07:52:55;;;;;;;1.07;0.30;;;16.50;99.90;;;;;;5026346;28;20590;-80
2023/08/06 07:55:21;;;;;;;0.70;0.33;;;16.40;99.90;;;;;;5050408;28;20419;-81
2023/08/06 07:57:46;;;;;;;3.07;0.60;;;16.60;99.90;;;;;;5045970;28;22329;-81
2023/08/06 08:00:12;;;;;;;1.03;0.43;;;16.90;99.90;;;;;;5032019;28;20204;-82
2023/08/06 08:02:37;;;;;;;1.07;0.40;;;16.40;99.90;;;;;;5048761;28;20280;-84
2023/08/06 08:05:03;;;;;;;0.60;0.40;;;16.20;99.90;;;;;;5026241;28;20331;-83
2023/08/06 08:07:30;;;;;;;1.00;0.37;;;16.10;99.90;;;;;;5049199;28;20659;-81
2023/08/06 08:09:56;;;;;;;1.43;0.30;;;16.10;99.90;;;;;;5050155;28;20190;-82
2023/08/06 08:12:23;;;;;;;0.67;0.40;;;16.00;99.90;;;;;;5049441;28;20455;-84
2023/08/06 08:14:48;;;;;;;0.80;0.40;;;16.30;99.90;;;;;;5041451;28;20468;-83
2023/08/06 08:17:14;;;;;;;3.40;0.80;;;16.70;99.90;;;;;;5033035;28;21231;-82
2023/08/06 08:19:43;;;;;;;1.60;0.30;;;17.20;99.90;;;;;;5049949;28;20221;-82
2023/08/06 08:22:08;;;;;;;0.47;0.40;;;17.30;99.90;;;;;;5035423;28;20199;-82
2023/08/06 08:24:34;;;;;;;0.53;0.40;;;16.70;99.90;;;;;;5052260;28;20438;-81
2023/08/06 08:27:00;;;;;;;1.03;0.53;;;16.20;99.90;;;;;;5048757;28;20185;-81
2023/08/06 08:29:25;;;;;;;0.67;0.33;;;16.20;99.90;;;;;;5058420;28;20441;-84
2023/08/06 08:31:51;;;;;;;0.50;0.30;;;16.70;99.90;;;;;;5032581;28;20205;-84
2023/08/06 08:34:17;;;;;;;0.40;0.30;;;17.80;99.90;;;;;;5036296;28;20942;-84
2023/08/06 08:36:43;;;;;;;0.50;0.30;;;17.50;99.90;;;;;;5031448;28;20236;-83
2023/08/06 08:39:09;;;;;;;0.60;0.30;;;17.70;99.90;;;;;;5025773;28;20624;-84
2023/08/06 08:41:36;;;;;;;2.47;0.40;;;18.00;99.90;;;;;;5033605;28;20275;-83
2023/08/06 08:44:02;;;;;;;0.70;0.30;;;18.10;99.90;;;;;;5047984;28;20220;-81
2023/08/06 08:46:31;;;;;;;1.07;0.37;;;17.50;99.90;;;;;;5046418;28;20481;-80
2023/08/06 08:48:59;;;;;;;0.43;0.33;;;18.60;99.90;;;;;;5027773;28;20427;-83
2023/08/06 08:51:26;;;;;;;0.50;0.30;;;18.40;99.90;;;;;;5037238;28;20444;-81
2023/08/06 08:53:57;;;;;;;0.50;0.30;;;18.90;99.90;;;;;;5041422;28;20880;-83
2023/08/06 08:56:23;;;;;;;0.40;0.20;;;18.70;99.90;;;;;;5025737;28;20992;-82
2023/08/06 08:58:49;;;;;;;0.50;0.30;;;17.90;99.90;;;;;;5026674;28;20435;-81
2023/08/06 09:01:15;;;;;;;0.40;0.20;;;17.30;99.90;;;;;;5038310;28;20477;-81
2023/08/06 09:03:43;;;;;;;0.53;0.30;;;17.40;99.90;;;;;;5035885;28;21081;-82
2023/08/06 09:06:11;;;;;;;0.40;0.23;;;18.00;99.90;;;;;;5056721;28;20518;-80
2023/08/06 09:08:41;;;;;;;0.73;0.30;;;17.90;99.90;;;;;;5050340;28;20584;-82
2023/08/06 09:11:10;;;;;;;0.60;0.30;;;17.70;99.90;;;;;;5052875;28;21494;-81
2023/08/06 09:13:37;;;;;;;0.40;0.20;;;17.30;99.90;;;;;;5030227;28;20517;-82
2023/08/06 09:16:03;;;;;;;0.60;0.30;;;16.70;99.90;;;;;;5033960;28;20438;-82
2023/08/06 09:18:31;;;;;;;0.50;0.37;;;16.20;99.90;;;;;;5047630;28;20450;-82
2023/08/06 09:20:58;;;;;;;0.40;0.40;;;16.30;99.90;;;;;;5044793;28;20184;-78
2023/08/06 09:23:31;;;;;;;0.57;0.30;;;16.30;99.90;;;;;;5059973;28;20435;-80
2023/08/06 09:25:57;;;;;;;0.57;0.40;;;16.30;99.90;;;;;;5028976;28;20462;-79
2023/08/06 09:28:24;;;;;;;0.60;0.40;;;16.40;99.90;;;;;;5042772;28;20493;-84
2023/08/06 09:30:50;;;;;;;2.03;0.37;;;16.30;99.90;;;;;;5024640;28;20488;-81
2023/08/06 09:33:19;;;;;;;0.50;0.40;;;16.30;99.90;;;;;;5047095;28;20508;-84
2023/08/06 09:35:46;;;;;;;0.80;0.30;;;16.90;99.90;;;;;;5045514;28;20507;-81
2023/08/06 09:38:12;;;;;;;1.17;0.40;;;17.20;99.90;;;;;;5052604;28;20462;-81
2023/08/06 09:40:39;;;;;;;0.50;0.30;;;16.90;99.90;;;;;;5045413;28;20545;-83
2023/08/06 09:43:05;;;;;;;0.40;0.30;;;16.40;99.90;;;;;;5042576;28;20495;-81
2023/08/06 09:45:36;;;;;;;0.50;0.30;;;16.50;99.90;;;;;;5035684;28;21225;-82
2023/08/06 09:48:09;;;;;;;0.60;0.40;;;16.50;99.90;;;;;;5040660;28;20442;-79
2023/08/06 09:50:36;;;;;;;0.87;0.30;;;16.00;99.90;;;;;;5035364;28;21086;-81
2023/08/06 09:53:03;;;;;;;0.50;0.30;;;16.20;99.90;;;;;;5031702;28;20452;-81
2023/08/06 09:55:29;;;;;;;0.47;0.33;;;16.30;99.90;;;;;;5033988;28;20457;-80
2023/08/06 09:57:56;;;;;;;1.37;0.40;;;;;;;;;;5051554;28;20938;-83
2023/08/06 10:00:25;;;;;;;0.60;0.50;;;17.50;99.90;;;;;;5050837;28;20177;-83
2023/08/06 10:02:55;;;;;;;0.50;0.40;;;17.90;99.90;;;;;;5031437;28;20929;-80
2023/08/06 10:05:23;;;;;;;1.47;0.30;;;17.90;99.90;;;;;;5046232;28;20477;-81
2023/08/06 10:07:50;;;;;;;0.40;0.30;;;17.60;99.90;;;;;;5033039;28;20431;-80
2023/08/06 10:10:16;;;;;;;0.40;0.30;;;17.10;99.90;;;;;;5028975;28;20456;-82
2023/08/06 10:12:50;;;;;;;0.43;0.27;;;16.90;99.90;;;;;;5051164;28;20494;-82
2023/08/06 10:15:21;;;;;;;0.40;0.30;;;16.90;99.90;;;;;;5050492;28;20188;-80
2023/08/06 10:17:48;;;;;;;0.40;0.30;;;16.90;99.90;;;;;;5049340;28;20435;-83
2023/08/06 10:20:15;;;;;;;0.60;0.37;;;;;;;;;;5028854;28;20446;-84
2023/08/06 10:22:46;;;;;;;0.40;0.30;;;16.20;99.90;;;;;;5060842;28;20458;-83
2023/08/06 10:25:16;;;;;;;1.77;0.40;;;15.90;99.90;;;;;;5043195;28;20463;-81
2023/08/06 10:27:48;;;;;;;0.60;0.40;;;15.70;99.90;;;;;;5036596;28;20423;-81
2023/08/06 10:30:33;;;;;;;0.70;0.50;;;15.80;99.90;;;;;;5038966;28;20509;-79
2023/08/06 10:33:03;;;;;;;0.87;0.30;;;16.00;99.90;;;;;;5026336;28;20455;-81
2023/08/06 10:35:45;;;;;;;1.00;0.50;;;15.80;99.90;;;;;;5033078;28;20945;-82
2023/08/06 10:38:15;;;;;;;0.70;0.40;;;15.90;99.90;;;;;;5019082;28;20434;-83
2023/08/06 10:40:48;;;;;;;0.70;0.50;;;15.70;99.90;;;;;;5034735;28;20434;-83
2023/08/06 10:43:32;;;;;;;0.50;0.50;;;15.70;99.90;;;;;;5021941;28;20460;-83
2023/08/06 10:45:59;;;;;;;0.80;0.53;;;15.60;99.90;;;;;;5033608;28;20478;-81
2023/08/06 10:48:33;;;;;;;0.50;0.40;;;15.60;99.90;;;;;;5038073;28;20443;-80
2023/08/06 10:51:00;;;;;;;0.63;0.50;;;15.90;99.90;;;;;;5045170;28;20456;-82
2023/08/06 10:53:26;;;;;;;0.50;0.40;;;16.00;99.90;;;;;;5044747;28;20457;-82
2023/08/06 10:55:52;;;;;;;3.03;0.67;;;16.10;99.90;;;;;;5027390;28;20427;-83
2023/08/06 10:58:17;;;;;;;0.50;0.40;;;16.60;99.90;;;;;;5042375;28;20664;-83
2023/08/06 11:00:43;;;;;;;0.50;0.40;;;16.10;99.90;;;;;;5019914;28;20188;-81
2023/08/06 11:03:08;;;;;;;1.07;0.97;;;15.70;99.90;;;;;;5017846;28;20225;-81
2023/08/06 11:05:35;;;;;;;1.83;1.00;;;15.80;99.90;;;;;;5034255;28;21015;-84
2023/08/06 11:08:01;;;;;;;0.90;0.70;;;15.90;99.90;;;;;;5012404;28;20177;-81
2023/08/06 11:10:26;;;;;;;2.47;1.37;;;16.10;99.90;;;;;;5023844;28;20457;-81
2023/08/06 11:12:53;;;;;;;41.40;8.53;;;15.90;99.90;;;;;;5013673;28;20255;-80
2023/08/06 11:15:20;;;;;;;10.00;3.63;;;15.40;99.90;;;;;;5018040;28;20478;-81
2023/08/06 11:17:47;;;;;;;13.77;6.27;;;15.20;99.90;;;;;;5016985;28;21011;-81
2023/08/06 11:20:12;;;;;;;4.03;2.10;;;15.10;99.90;;;;;;5042250;28;20423;-82
2023/08/06 11:22:38;;;;;;;2.97;1.53;;;15.10;99.90;;;;;;5034903;28;20497;-80
2023/08/06 11:25:06;;;;;;;4.53;1.60;;;14.90;99.90;;;;;;5035666;28;20204;-82
2023/08/06 11:27:31;;;;;;;3.90;1.50;;;15.00;99.90;;;;;;5038516;28;20223;-80
2023/08/06 11:29:57;;;;;;;2.53;1.10;;;15.10;99.90;;;;;;5036461;28;21191;-84
2023/08/06 11:32:23;;;;;;;2.50;1.20;;;15.10;99.90;;;;;;5024891;28;20203;-80
2023/08/06 11:34:49;;;;;;;1.87;1.20;;;15.20;99.90;;;;;;5022315;28;20458;-81
2023/08/06 11:37:14;;;;;;;4.90;1.00;;;15.00;99.90;;;;;;5022078;28;20204;-82
2023/08/06 11:39:46;;;;;;;1.20;0.93;;;15.00;99.90;;;;;;5045565;28;20189;-82
2023/08/06 11:42:12;;;;;;;2.60;1.03;;;15.00;99.90;;;;;;5033953;28;20231;-82
2023/08/06 11:44:38;;;;;;;3.07;1.20;;;14.70;99.90;;;;;;5032275;28;20868;-83
2023/08/06 11:47:05;;;;;;;2.50;1.23;;;14.60;99.90;;;;;;5024834;28;21066;-82
2023/08/06 11:49:49;;;;;;;1.43;0.97;;;14.80;99.90;;;;;;5031482;28;20187;-81
2023/08/06 11:52:19;;;;;;;2.33;1.40;;;14.80;99.90;;;;;;5044321;28;20464;-79
2023/08/06 11:54:46;;;;;;;2.80;1.77;;;14.60;99.90;;;;;;5054998;28;20423;-83
2023/08/06 11:57:11;;;;;;;2.03;1.40;;;14.50;99.90;;;;;;5031188;28;20435;-81
2023/08/06 11:59:38;;;;;;;4.40;1.90;;;14.20;99.90;;;;;;5026341;28;21344;-80
2023/08/06 12:02:07;;;;;;;2.37;1.30;;;14.10;99.90;;;;;;5020894;28;20241;-82
2023/08/06 12:05:01;;;;;;;2.17;1.67;;;14.00;99.90;;;;;;5038590;28;20470;-83
2023/08/06 12:07:36;;;;;;;2.90;1.47;;;14.00;99.90;;;;;;5019628;28;20852;-82
2023/08/06 12:10:02;;;;;;;3.60;1.77;;;14.00;99.90;;;;;;5031693;28;20583;-83
2023/08/06 12:12:28;;;;;;;3.00;1.80;;;14.10;99.90;;;;;;5046435;28;20481;-84
2023/08/06 12:14:54;;;;;;;1.80;1.63;;;14.10;99.90;;;;;;5033914;28;20311;-82
2023/08/06 12:17:20;;;;;;;3.35;2.17;;;14.00;99.90;;;;;;5025013;28;20961;-80
2023/08/06 12:19:49;;;;;;;2.10;1.90;;;14.10;99.90;;;;;;5031412;28;20196;-82
2023/08/06 12:22:15;;;;;;;3.97;2.13;;;14.10;99.90;;;;;;5029350;28;20236;-81
2023/08/06 12:24:44;;;;;;;5.43;1.80;;;14.10;99.90;;;;;;5045838;28;20549;-84
2023/08/06 12:27:10;;;;;;;5.13;2.03;;;14.20;99.90;;;;;;5038379;28;20438;-81
2023/08/06 12:29:37;;;;;;;5.17;2.23;;;14.30;99.90;;;;;;5020847;28;20431;-80
2023/08/06 12:32:03;;;;;;;5.20;2.30;;;14.40;99.90;;;;;;5021231;28;20435;-82
2023/08/06 12:34:29;;;;;;;4.00;3.40;;;14.30;99.90;;;;;;5036729;28;20461;-81
2023/08/06 12:36:54;;;;;;;8.13;2.30;;;14.20;99.90;;;;;;5023186;28;20470;-82
2023/08/06 12:39:20;;;;;;;9.70;2.17;;;14.20;99.90;;;;;;5023100;28;20173;-82
2023/08/06 12:41:46;;;;;;;3.70;2.23;;;14.10;99.90;;;;;;4999683;28;20208;-80
2023/08/06 12:44:12;;;;;;;6.00;2.20;;;14.20;99.90;;;;;;5034707;28;20201;-81
2023/08/06 12:46:38;;;;;;;5.97;2.40;;;14.30;99.90;;;;;;5025807;28;20662;-79
2023/08/06 12:49:03;;;;;;;3.40;2.17;;;14.50;99.90;;;;;;5025495;28;20439;-81
2023/08/06 12:51:29;;;;;;;3.07;1.70;;;14.60;99.90;;;;;;5051931;28;20188;-78